Time;durP1;ratioP1;P1;durP2;ratioP2;P2;SDS_P1;SDS_P2;PMS_P1;PMS_P2;Temp;Humidity;BMP_temperature;BMP_pressure;BME280_temperature;BME280_humidity;BME280_pressure;Samples;Min_cycle;Max_cycle;Signal;HPM_P1;HPM_P2
2022/10/30 00:00:38;;;;;;;115.20;102.63;;;;;21.30;100628.00;;;;2070587;28;20214;-58
2022/10/30 00:01:38;;;;;;;117.27;104.77;;;;;21.60;100615.00;;;;2070555;28;20214;-57
2022/10/30 00:02:39;;;;;;;113.07;101.07;;;;;21.60;100617.00;;;;2070519;28;20341;-56
2022/10/30 00:03:39;;;;;;;114.80;102.30;;;;;21.60;100616.00;;;;2071470;28;20268;-58
2022/10/30 00:04:39;;;;;;;124.33;111.13;;;;;21.60;100614.00;;;;2071495;28;20214;-55
2022/10/30 00:05:44;;;;;;;121.20;108.27;;;;;21.60;100616.00;;;;2071048;28;20221;-55
2022/10/30 00:06:44;;;;;;;115.90;102.55;;;;;21.60;100612.00;;;;2070426;28;21078;-57
2022/10/30 00:07:44;;;;;;;117.83;104.93;;;;;21.60;100618.00;;;;2062605;28;20215;-57
2022/10/30 00:08:45;;;;;;;121.30;108.23;;;;;21.60;100615.00;;;;2062553;28;20222;-55
2022/10/30 00:09:45;;;;;;;117.53;105.03;;;;;21.60;100613.00;;;;2071513;28;20220;-56
2022/10/30 00:10:45;;;;;;;117.70;105.10;;;;;21.60;100612.00;;;;2071266;28;20210;-56
2022/10/30 00:11:46;;;;;;;121.43;108.20;;;;;21.60;100621.00;;;;2070203;28;20210;-55
2022/10/30 00:12:46;;;;;;;114.40;102.37;;;;;21.60;100626.00;;;;2069883;28;20244;-55
2022/10/30 00:13:46;;;;;;;113.73;100.67;;;;;21.60;100621.00;;;;2070793;28;20218;-57
2022/10/30 00:14:47;;;;;;;109.80;98.13;;;;;21.60;100615.00;;;;2071090;28;20207;-56
2022/10/30 00:15:51;;;;;;;111.27;99.07;;;;;21.60;100617.00;;;;2071409;28;20232;-56
2022/10/30 00:16:52;;;;;;;109.82;98.30;;;;;21.60;100619.00;;;;2078171;28;20297;-57
2022/10/30 00:17:52;;;;;;;114.57;102.20;;;;;21.60;100621.00;;;;2078698;28;20271;-56
2022/10/30 00:18:53;;;;;;;111.63;99.73;;;;;21.60;100620.00;;;;2071279;28;20238;-55
2022/10/30 00:19:53;;;;;;;110.67;99.00;;;;;21.60;100619.00;;;;2073812;28;20213;-57
2022/10/30 00:20:53;;;;;;;110.97;99.10;;;;;21.60;100631.00;;;;2070466;28;20675;-56
2022/10/30 00:21:56;;;;;;;114.37;102.30;;;;;21.60;100629.00;;;;2070297;28;20617;-55
2022/10/30 00:22:56;;;;;;;107.78;96.35;;;;;21.60;100619.00;;;;2070162;28;20285;-55
2022/10/30 00:23:57;;;;;;;115.80;103.37;;;;;21.60;100641.00;;;;2070981;28;20217;-56
2022/10/30 00:24:57;;;;;;;109.60;98.20;;;;;21.60;100630.00;;;;2070551;28;20210;-57
2022/10/30 00:26:01;;;;;;;109.10;97.60;;;;;21.60;100625.00;;;;2070611;28;20682;-57
2022/10/30 00:27:01;;;;;;;107.68;96.53;;;;;21.60;100620.00;;;;2084106;28;20676;-58
2022/10/30 00:28:06;;;;;;;106.37;94.97;;;;;21.60;100621.00;;;;2086946;28;20206;-57
2022/10/30 00:29:06;;;;;;;106.10;95.05;;;;;21.60;100619.00;;;;2078527;28;20218;-56
2022/10/30 00:30:07;;;;;;;104.70;93.57;;;;;21.60;100626.00;;;;2079305;28;20232;-56
2022/10/30 00:31:07;;;;;;;105.47;94.30;;;;;21.60;100625.00;;;;2076861;28;20341;-57
2022/10/30 00:32:08;;;;;;;103.00;92.10;;;;;21.60;100625.00;;;;2069409;28;20453;-57
2022/10/30 00:33:08;;;;;;;103.30;92.57;;;;;21.60;100617.00;;;;2070114;28;20213;-57
2022/10/30 00:34:08;;;;;;;104.43;93.40;;;;;21.60;100618.00;;;;2069002;28;20289;-56
2022/10/30 00:35:09;;;;;;;105.30;93.97;;;;;21.60;100620.00;;;;2071188;28;20218;-56
2022/10/30 00:36:09;;;;;;;103.10;91.90;;;;;21.60;100624.00;;;;2071227;28;20225;-59
2022/10/30 00:37:10;;;;;;;106.93;95.63;;;;;21.60;100620.00;;;;2070634;28;20958;-58
2022/10/30 00:38:10;;;;;;;106.33;95.07;;;;;21.60;100613.00;;;;2071267;28;21013;-58
2022/10/30 00:39:10;;;;;;;108.00;96.50;;;;;21.60;100615.00;;;;2070951;28;20714;-58
2022/10/30 00:40:13;;;;;;;112.57;100.67;;;;;21.60;100606.00;;;;2071139;28;20954;-58
2022/10/30 00:41:15;;;;;;;103.82;92.72;;;;;21.60;100614.00;;;;2071111;28;20206;-58
2022/10/30 00:42:15;;;;;;;106.75;95.75;;;;;21.60;100621.00;;;;2069870;28;20221;-57
2022/10/30 00:43:34;;;;;;;105.67;94.47;;;;;21.60;100616.00;;;;2070203;28;20221;-56
2022/10/30 00:44:44;;;;;;;97.47;86.97;;;;;21.60;100606.00;;;;2075426;28;20220;-56
2022/10/30 00:45:45;;;;;;;99.63;89.13;;;;;21.60;100615.00;;;;2078679;28;20236;-55
2022/10/30 00:46:45;;;;;;;98.00;86.40;;;;;21.60;100598.00;;;;2078703;28;20198;-55
2022/10/30 00:47:51;;;;;;;98.10;87.53;;;;;21.60;100614.00;;;;2078473;28;20209;-56
2022/10/30 00:48:54;;;;;;;100.85;90.28;;;;;21.60;100606.00;;;;2078605;28;20221;-56
2022/10/30 00:50:00;;;;;;;91.07;81.35;;;;;21.60;100614.00;;;;2078445;28;20217;-56
2022/10/30 00:51:00;;;;;;;91.03;81.38;;;;;21.60;100620.00;;;;2077995;28;20304;-56
2022/10/30 00:52:00;;;;;;;95.17;84.83;;;;;21.50;100619.00;;;;2068816;28;20229;-58
2022/10/30 00:53:04;;;;;;;91.30;81.20;;;;;21.60;100623.00;;;;2061182;28;20255;-57
2022/10/30 00:54:04;;;;;;;91.63;81.65;;;;;21.60;100613.00;;;;2069789;28;20226;-55
2022/10/30 00:55:10;;;;;;;94.80;84.83;;;;;21.60;100615.00;;;;2078181;28;20214;-56
2022/10/30 00:56:10;;;;;;;93.75;83.78;;;;;21.60;100627.00;;;;2078179;28;20214;-56
2022/10/30 00:57:11;;;;;;;95.30;85.07;;;;;21.60;100611.00;;;;2077933;28;20213;-58
2022/10/30 00:58:13;;;;;;;94.60;83.67;;;;;21.50;100614.00;;;;2078043;28;20218;-58
2022/10/30 00:59:17;;;;;;;95.30;85.40;;;;;21.60;100613.00;;;;2078396;28;20320;-56
2022/10/30 01:00:18;;;;;;;93.63;83.95;;;;;21.60;100609.00;;;;2077888;28;20210;-58
2022/10/30 01:01:20;;;;;;;98.47;87.90;;;;;21.60;100608.00;;;;2069857;28;20214;-55
2022/10/30 01:02:20;;;;;;;96.88;86.38;;;;;21.60;100613.00;;;;2061234;28;20215;-55
2022/10/30 01:03:21;;;;;;;92.83;82.87;;;;;21.60;100611.00;;;;2069228;28;20222;-56
2022/10/30 01:04:21;;;;;;;100.50;89.73;;;;;21.60;100619.00;;;;2069385;28;20256;-55
2022/10/30 01:05:22;;;;;;;96.77;86.93;;;;;21.60;100598.00;;;;2069741;28;20812;-58
2022/10/30 01:06:22;;;;;;;91.30;81.70;;;;;21.60;100617.00;;;;2074765;28;20297;-56
2022/10/30 01:07:22;;;;;;;95.90;85.87;;;;;21.50;100612.00;;;;2069578;28;20879;-55
2022/10/30 01:08:23;;;;;;;94.73;84.93;;;;;21.60;100609.00;;;;2070088;28;20290;-55
2022/10/30 01:09:23;;;;;;;85.27;76.43;;;;;21.60;100602.00;;;;2069988;28;20274;-57
2022/10/30 01:10:23;;;;;;;89.40;80.00;;;;;21.60;100613.00;;;;2070192;28;20640;-57
2022/10/30 01:11:24;;;;;;;89.47;80.20;;;;;21.60;100608.00;;;;2074741;28;20621;-57
2022/10/30 01:12:24;;;;;;;87.37;78.13;;;;;21.60;100611.00;;;;2073602;28;20272;-58
2022/10/30 01:13:24;;;;;;;87.70;78.50;;;;;21.50;100605.00;;;;2072832;28;20214;-54
2022/10/30 01:14:25;;;;;;;90.93;81.23;;;;;21.50;100614.00;;;;2078923;28;20359;-55
2022/10/30 01:15:31;;;;;;;84.03;75.50;;;;;21.50;100439.00;;;;2078442;28;20233;-54
2022/10/30 01:16:56;;;;;;;89.60;80.35;;;;;21.60;100604.00;;;;2078430;28;20297;-58
2022/10/30 01:18:14;;;;;;;87.22;78.15;;;;;21.60;100615.00;;;;2072761;28;20305;-58
2022/10/30 01:19:23;;;;;;;80.10;71.63;;;;;21.60;100616.00;;;;2075791;28;20217;-56
2022/10/30 01:20:34;;;;;;;87.38;78.15;;;;;21.60;100624.00;;;;2071247;28;20773;-56
2022/10/30 01:21:43;;;;;;;83.35;74.55;;;;;21.60;100621.00;;;;2068561;28;21003;-56
2022/10/30 01:22:50;;;;;;;83.43;74.63;;;;;21.60;100622.00;;;;2069208;28;20222;-55
2022/10/30 01:24:08;;;;;;;80.30;71.63;;;;;21.50;100612.00;;;;2069985;28;20216;-55
2022/10/30 01:25:29;;;;;;;78.18;69.75;;;;;21.50;100617.00;;;;2065542;28;20210;-55
2022/10/30 01:27:04;;;;;;;75.25;66.80;;;;;21.60;100612.00;;;;2077860;28;20221;-56
2022/10/30 01:28:10;;;;;;;76.20;68.25;;;;;21.50;100623.00;;;;2077589;28;20309;-56
2022/10/30 01:29:18;;;;;;;76.90;68.68;;;;;21.50;100625.00;;;;2063507;28;20241;-58
2022/10/30 01:30:35;;;;;;;73.10;65.60;;;;;21.50;100606.00;;;;2062303;28;20215;-57
2022/10/30 01:31:50;;;;;;;75.45;67.53;;;;;21.50;100621.00;;;;2076584;28;20209;-56
2022/10/30 01:32:50;;;;;;;81.88;73.05;;;;;21.50;100618.00;;;;2077327;28;20325;-57
2022/10/30 01:34:08;;;;;;;81.37;72.83;;;;;21.50;100600.00;;;;2078800;28;20231;-58
2022/10/30 01:35:25;;;;;;;80.03;71.72;;;;;21.50;100623.00;;;;2077931;28;20209;-55
2022/10/30 01:36:35;;;;;;;82.80;73.90;;;;;21.50;100626.00;;;;2076938;28;20350;-55
2022/10/30 01:37:44;;;;;;;81.70;72.95;;;;;21.60;100630.00;;;;2068644;28;20217;-58
2022/10/30 01:39:03;;;;;;;81.95;73.05;;;;;21.50;100629.00;;;;2071198;28;20213;-57
2022/10/30 01:40:07;;;;;;;79.90;71.50;;;;;21.50;100622.00;;;;2077960;28;20216;-58
2022/10/30 01:41:08;;;;;;;79.97;71.78;;;;;21.50;100623.00;;;;2077800;28;20220;-55
2022/10/30 01:42:09;;;;;;;77.33;69.20;;;;;21.50;100620.00;;;;2076947;28;20213;-55
2022/10/30 01:43:10;;;;;;;74.63;66.72;;;;;21.50;100623.00;;;;2074431;28;20225;-56
2022/10/30 01:44:17;;;;;;;79.20;70.80;;;;;21.50;100614.00;;;;2070825;28;20947;-55
2022/10/30 01:45:44;;;;;;;71.25;63.63;;;;;21.50;100599.00;;;;2074068;28;20225;-56
2022/10/30 01:46:58;;;;;;;73.03;65.30;;;;;21.50;100612.00;;;;2070010;28;20925;-57
2022/10/30 01:48:23;;;;;;;75.75;67.45;;;;;21.50;100618.00;;;;2074761;28;20204;-55
2022/10/30 01:49:44;;;;;;;67.25;60.33;;;;;21.50;100623.00;;;;2071587;28;20220;-55
2022/10/30 01:50:50;;;;;;;76.47;68.28;;;;;21.50;100619.00;;;;2075133;28;20296;-57
2022/10/30 01:51:56;;;;;;;75.43;67.25;;;;;21.50;100620.00;;;;2077803;28;20255;-56
2022/10/30 01:53:09;;;;;;;74.95;67.15;;;;;21.50;100617.00;;;;2078137;28;20705;-55
2022/10/30 01:54:28;;;;;;;73.93;65.88;;;;;21.50;100620.00;;;;2077476;28;20225;-56
2022/10/30 01:55:31;;;;;;;72.32;64.70;;;;;21.50;100613.00;;;;2078223;28;20229;-56
2022/10/30 01:57:07;;;;;;;74.53;66.43;;;;;21.60;100611.00;;;;2078476;28;20221;-55
2022/10/30 01:58:12;;;;;;;72.50;65.10;;;;;21.50;100609.00;;;;2077697;28;20221;-55
2022/10/30 01:59:25;;;;;;;72.82;65.25;;;;;21.50;100616.00;;;;2077633;28;20216;-56
2022/10/30 02:00:25;;;;;;;71.88;62.75;;;;;21.50;100614.00;;;;2073033;28;20280;-56
2022/10/30 02:01:25;;;;;;;71.27;63.77;;;;;21.50;100612.00;;;;2069963;28;20658;-55
2022/10/30 02:02:26;;;;;;;68.77;61.30;;;;;21.50;100605.00;;;;2059263;28;20879;-55
2022/10/30 02:03:26;;;;;;;71.57;63.93;;;;;21.50;100610.00;;;;2067739;28;20237;-55
2022/10/30 02:04:26;;;;;;;70.43;63.20;;;;;21.50;100599.00;;;;2069879;28;20606;-54
2022/10/30 02:05:31;;;;;;;71.27;63.73;;;;;21.50;100615.00;;;;2053623;28;20643;-58
2022/10/30 02:06:31;;;;;;;67.45;60.45;;;;;21.50;100619.00;;;;2055038;28;20658;-56
2022/10/30 02:07:32;;;;;;;65.80;58.67;;;;;21.50;100618.00;;;;2069946;28;20221;-56
2022/10/30 02:08:32;;;;;;;69.90;62.43;;;;;21.50;100609.00;;;;2069116;28;20263;-56
2022/10/30 02:09:33;;;;;;;68.17;61.13;;;;;21.50;100606.00;;;;2070135;28;20217;-58
2022/10/30 02:10:34;;;;;;;67.30;60.17;;;;;21.60;100601.00;;;;2069645;28;20222;-56
2022/10/30 02:11:34;;;;;;;66.30;59.30;;;;;21.50;100600.00;;;;2069846;28;20245;-56
2022/10/30 02:12:34;;;;;;;67.83;60.80;;;;;21.50;100591.00;;;;2068890;28;20457;-55
2022/10/30 02:13:35;;;;;;;65.30;58.50;;;;;21.50;100606.00;;;;2070039;28;20315;-55
2022/10/30 02:14:38;;;;;;;68.53;61.43;;;;;21.50;100607.00;;;;2069643;28;20210;-57
2022/10/30 02:15:40;;;;;;;67.45;60.60;;;;;21.50;100614.00;;;;2069945;28;20536;-58
2022/10/30 02:16:43;;;;;;;66.35;59.42;;;;;21.50;100606.00;;;;2069759;28;20709;-58
2022/10/30 02:17:43;;;;;;;67.95;61.05;;;;;21.50;100602.00;;;;2069527;28;20289;-58
2022/10/30 02:18:44;;;;;;;63.73;56.80;;;;;21.50;100593.00;;;;2076308;28;20201;-57
2022/10/30 02:19:44;;;;;;;65.50;58.70;;;;;21.50;100598.00;;;;2075534;28;20241;-56
2022/10/30 02:20:44;;;;;;;62.23;55.93;;;;;21.60;100609.00;;;;2070232;28;20206;-57
2022/10/30 02:21:45;;;;;;;63.27;56.67;;;;;21.50;100606.00;;;;2069648;28;20210;-55
2022/10/30 02:22:45;;;;;;;63.40;56.97;;;;;21.50;100509.00;;;;2069199;28;20221;-56
2022/10/30 02:23:46;;;;;;;60.83;54.37;;;;;21.50;100602.00;;;;2069412;28;20229;-57
2022/10/30 02:24:46;;;;;;;61.13;54.67;;;;;21.50;100607.00;;;;2069447;28;20217;-55
2022/10/30 02:25:46;;;;;;;58.97;52.67;;;;;21.50;100607.00;;;;2077006;28;20213;-55
2022/10/30 02:26:47;;;;;;;58.70;52.70;;;;;21.50;100609.00;;;;2069347;28;20904;-55
2022/10/30 02:27:47;;;;;;;61.67;55.33;;;;;21.50;100613.00;;;;2077283;28;20214;-55
2022/10/30 02:28:47;;;;;;;60.57;54.27;;;;;21.50;100602.00;;;;2077729;28;20225;-55
2022/10/30 02:29:48;;;;;;;59.77;53.60;;;;;21.50;100601.00;;;;2078071;28;20312;-58
2022/10/30 02:30:48;;;;;;;60.93;54.57;;;;;21.50;100610.00;;;;2077683;28;20224;-57
2022/10/30 02:31:49;;;;;;;56.33;50.73;;;;;21.50;100607.00;;;;2077358;28;20220;-56
2022/10/30 02:32:49;;;;;;;61.63;55.43;;;;;21.50;100613.00;;;;2078056;28;20209;-56
2022/10/30 02:33:49;;;;;;;59.77;53.47;;;;;21.50;100608.00;;;;2078326;28;20248;-55
2022/10/30 02:34:50;;;;;;;59.30;53.00;;;;;21.50;100614.00;;;;2077887;28;20210;-55
2022/10/30 02:35:50;;;;;;;62.13;55.60;;;;;21.50;100614.00;;;;2077986;28;20243;-56
2022/10/30 02:36:50;;;;;;;59.47;53.43;;;;;21.50;100609.00;;;;2078165;28;20218;-54
2022/10/30 02:37:51;;;;;;;58.73;52.47;;;;;21.50;100620.00;;;;2077983;28;20217;-54
2022/10/30 02:38:51;;;;;;;60.00;53.80;;;;;21.50;100616.00;;;;2077731;28;20213;-54
2022/10/30 02:39:51;;;;;;;58.30;52.30;;;;;21.50;100623.00;;;;2077689;28;20252;-56
2022/10/30 02:40:52;;;;;;;57.30;51.47;;;;;21.50;100617.00;;;;2079545;28;20278;-56
2022/10/30 02:41:52;;;;;;;57.03;51.20;;;;;21.50;100621.00;;;;2078676;28;20272;-55
2022/10/30 02:42:53;;;;;;;56.70;51.00;;;;;21.50;100626.00;;;;2079626;28;20209;-57
2022/10/30 02:43:53;;;;;;;54.78;49.17;;;;;21.50;100615.00;;;;2078883;28;20214;-56
2022/10/30 02:44:54;;;;;;;55.80;50.13;;;;;21.50;100619.00;;;;2078617;28;20232;-56
2022/10/30 02:45:54;;;;;;;50.20;45.03;;;;;21.50;100613.00;;;;2079213;28;20219;-57
2022/10/30 02:46:55;;;;;;;56.37;50.57;;;;;21.50;100615.00;;;;2079566;28;20205;-57
2022/10/30 02:47:55;;;;;;;52.33;47.00;;;;;21.50;100618.00;;;;2079618;28;20209;-55
2022/10/30 02:48:55;;;;;;;53.03;47.53;;;;;21.50;100611.00;;;;2079570;28;20223;-56
2022/10/30 02:49:55;;;;;;;54.10;48.57;;;;;21.50;100620.00;;;;2079163;28;20205;-57
2022/10/30 02:51:00;;;;;;;52.50;47.10;;;;;21.50;100615.00;;;;2079235;28;20245;-57
2022/10/30 02:52:00;;;;;;;53.35;47.80;;;;;21.50;100621.00;;;;2077910;28;20209;-53
2022/10/30 02:53:00;;;;;;;53.40;47.87;;;;;21.50;100619.00;;;;2079715;28;20219;-57
2022/10/30 02:54:01;;;;;;;49.03;44.10;;;;;21.50;100623.00;;;;2079723;28;20220;-56
2022/10/30 02:55:01;;;;;;;49.13;44.33;;;;;21.50;100620.00;;;;2079647;28;20236;-57
2022/10/30 02:56:06;;;;;;;50.43;45.23;;;;;21.50;100620.00;;;;2079819;28;20275;-57
2022/10/30 02:57:06;;;;;;;49.65;44.42;;;;;21.50;100622.00;;;;2079224;28;20209;-56
2022/10/30 02:58:06;;;;;;;49.60;44.50;;;;;21.50;100619.00;;;;2078954;28;20216;-56
2022/10/30 02:59:07;;;;;;;49.03;43.97;;;;;21.50;100621.00;;;;2079085;28;20311;-57
2022/10/30 03:00:07;;;;;;;51.10;45.83;;;;;21.50;100622.00;;;;2079466;28;22182;-57
2022/10/30 03:01:15;;;;;;;46.10;41.53;;;;;21.50;100620.00;;;;2080134;28;20969;-55
2022/10/30 03:02:16;;;;;;;47.70;42.80;;;;;21.50;100615.00;;;;2078966;28;20233;-55
2022/10/30 03:03:16;;;;;;;47.37;42.47;;;;;21.50;100619.00;;;;2079783;28;20213;-56
2022/10/30 03:04:16;;;;;;;46.33;41.60;;;;;21.50;100618.00;;;;2079252;28;20217;-56
2022/10/30 03:05:17;;;;;;;46.33;41.63;;;;;21.50;100624.00;;;;2076849;28;20221;-55
2022/10/30 03:06:17;;;;;;;44.40;39.83;;;;;21.50;100628.00;;;;2070541;28;20280;-56
2022/10/30 03:07:17;;;;;;;48.00;43.10;;;;;21.50;100612.00;;;;2071549;28;20301;-57
2022/10/30 03:08:18;;;;;;;49.17;43.90;;;;;21.50;100624.00;;;;2071435;28;20218;-57
2022/10/30 03:09:18;;;;;;;45.57;40.87;;;;;21.50;100620.00;;;;2071065;28;20225;-57
2022/10/30 03:10:18;;;;;;;46.93;42.23;;;;;21.50;100625.00;;;;2071548;28;20244;-55
2022/10/30 03:11:19;;;;;;;48.43;43.40;;;;;21.50;100626.00;;;;2070673;28;20725;-56
2022/10/30 03:12:20;;;;;;;44.67;40.27;;;;;21.50;100626.00;;;;2070132;28;20690;-54
2022/10/30 03:13:20;;;;;;;46.15;41.45;;;;;21.50;100617.00;;;;2070772;28;20255;-55
2022/10/30 03:14:21;;;;;;;44.87;40.30;;;;;21.50;100632.00;;;;2070350;28;20777;-60
2022/10/30 03:15:21;;;;;;;45.40;40.80;;;;;21.50;100634.00;;;;2071679;28;20698;-59
2022/10/30 03:16:22;;;;;;;44.57;40.07;;;;;21.50;100621.00;;;;2071378;28;20223;-56
2022/10/30 03:17:23;;;;;;;44.03;39.55;;;;;21.50;100639.00;;;;2072112;28;20268;-56
2022/10/30 03:18:23;;;;;;;43.53;39.13;;;;;21.40;100638.00;;;;2079714;28;20662;-57
2022/10/30 03:19:23;;;;;;;40.00;35.93;;;;;21.50;100632.00;;;;2079427;28;20279;-56
2022/10/30 03:20:24;;;;;;;40.23;36.20;;;;;21.50;100636.00;;;;2072010;28;20557;-57
2022/10/30 03:21:25;;;;;;;40.77;36.37;;;;;21.50;100624.00;;;;2071838;28;20868;-55
2022/10/30 03:22:25;;;;;;;40.83;36.58;;;;;21.50;100620.00;;;;2070786;28;20302;-56
2022/10/30 03:23:26;;;;;;;39.33;35.23;;;;;21.50;100622.00;;;;2071727;28;20706;-56
2022/10/30 03:24:26;;;;;;;40.57;36.37;;;;;21.50;100615.00;;;;2070900;28;20226;-56
2022/10/30 03:25:26;;;;;;;40.13;35.83;;;;;21.40;100624.00;;;;2071983;28;20234;-57
2022/10/30 03:26:27;;;;;;;39.80;35.80;;;;;21.50;100623.00;;;;2071811;28;20217;-56
2022/10/30 03:27:27;;;;;;;39.47;35.37;;;;;21.50;100621.00;;;;2076448;28;20210;-56
2022/10/30 03:28:28;;;;;;;39.83;35.73;;;;;21.40;100628.00;;;;2079846;28;20221;-56
2022/10/30 03:29:29;;;;;;;38.20;34.10;;;;;21.40;100621.00;;;;2079202;28;20340;-57
2022/10/30 03:30:29;;;;;;;38.93;35.00;;;;;21.40;100623.00;;;;2079282;28;20302;-53
2022/10/30 03:31:30;;;;;;;41.63;37.40;;;;;21.40;100628.00;;;;2071877;28;20238;-55
2022/10/30 03:32:30;;;;;;;38.47;34.57;;;;;21.50;100619.00;;;;2070520;28;20209;-55
2022/10/30 03:33:31;;;;;;;39.37;35.20;;;;;21.50;100632.00;;;;2071635;28;20233;-55
2022/10/30 03:34:31;;;;;;;35.03;31.57;;;;;21.40;100627.00;;;;2070516;28;20265;-55
2022/10/30 03:35:34;;;;;;;36.13;32.60;;;;;21.50;100620.00;;;;2071488;28;20531;-55
2022/10/30 03:36:34;;;;;;;36.78;32.95;;;;;21.40;100626.00;;;;2077217;28;20241;-54
2022/10/30 03:37:35;;;;;;;36.70;33.00;;;;;21.50;100631.00;;;;2079610;28;20404;-56
2022/10/30 03:38:35;;;;;;;39.53;35.43;;;;;21.40;100626.00;;;;2079818;28;20616;-58
2022/10/30 03:39:36;;;;;;;36.37;32.70;;;;;21.40;100628.00;;;;2080170;28;20206;-56
2022/10/30 03:40:36;;;;;;;34.97;31.47;;;;;21.40;100632.00;;;;2079683;28;20237;-55
2022/10/30 03:41:36;;;;;;;35.63;32.03;;;;;21.40;100633.00;;;;2079946;28;20205;-56
2022/10/30 03:42:40;;;;;;;33.50;30.20;;;;;21.40;100633.00;;;;2078858;28;20264;-56
2022/10/30 03:43:40;;;;;;;37.05;33.25;;;;;21.40;100637.00;;;;2079743;28;20603;-55
2022/10/30 03:44:40;;;;;;;35.93;32.30;;;;;21.50;100645.00;;;;2078600;28;20213;-55
2022/10/30 03:45:48;;;;;;;33.40;29.90;;;;;21.50;100646.00;;;;2079254;28;20669;-54
2022/10/30 03:46:48;;;;;;;35.42;31.80;;;;;21.50;100646.00;;;;2079986;28;20541;-55
2022/10/30 03:47:48;;;;;;;33.93;30.53;;;;;21.50;100637.00;;;;2079911;28;20218;-55
2022/10/30 03:48:49;;;;;;;34.13;30.63;;;;;21.40;100636.00;;;;2079799;28;20222;-56
2022/10/30 03:49:49;;;;;;;33.50;30.13;;;;;21.40;100642.00;;;;2079978;28;20213;-55
2022/10/30 03:50:53;;;;;;;33.00;29.67;;;;;21.50;100634.00;;;;2079207;28;20715;-56
2022/10/30 03:51:54;;;;;;;32.60;29.50;;;;;21.40;100632.00;;;;2077596;28;20206;-56
2022/10/30 03:52:55;;;;;;;33.93;30.37;;;;;21.40;100625.00;;;;2080051;28;20216;-57
2022/10/30 03:53:56;;;;;;;33.78;30.38;;;;;21.40;100635.00;;;;2078931;28;20208;-57
2022/10/30 03:54:56;;;;;;;29.73;26.67;;;;;21.40;100635.00;;;;2079227;28;20217;-57
2022/10/30 03:55:58;;;;;;;34.10;30.67;;;;;21.40;100639.00;;;;2079537;28;20721;-57
2022/10/30 03:56:58;;;;;;;31.05;27.77;;;;;21.40;100640.00;;;;2078800;28;20213;-57
2022/10/30 03:57:59;;;;;;;32.80;29.50;;;;;21.40;100641.00;;;;2079173;28;20264;-54
2022/10/30 03:58:59;;;;;;;29.20;26.37;;;;;21.40;100640.00;;;;2077984;28;20237;-55
2022/10/30 03:59:59;;;;;;;32.43;29.03;;;;;21.40;100648.00;;;;2079479;28;20224;-56
2022/10/30 04:01:03;;;;;;;31.20;27.93;;;;;21.40;100642.00;;;;2079189;28;20260;-56
2022/10/30 04:02:04;;;;;;;31.38;28.27;;;;;21.40;100642.00;;;;2078943;28;20217;-57
2022/10/30 04:03:07;;;;;;;30.30;27.30;;;;;21.40;100643.00;;;;2077989;28;20233;-57
2022/10/30 04:04:08;;;;;;;31.05;27.80;;;;;21.40;100633.00;;;;2071435;28;20789;-55
2022/10/30 04:05:08;;;;;;;28.67;25.80;;;;;21.40;100637.00;;;;2071595;28;20211;-57
2022/10/30 04:06:08;;;;;;;30.57;27.37;;;;;21.40;100638.00;;;;2071484;28;20692;-56
2022/10/30 04:07:09;;;;;;;30.73;27.33;;;;;21.40;100638.00;;;;2071560;28;20219;-57
2022/10/30 04:08:12;;;;;;;30.97;27.80;;;;;21.40;100615.00;;;;2071400;28;20253;-57
2022/10/30 04:09:13;;;;;;;31.13;27.90;;;;;21.40;100645.00;;;;2070763;28;20225;-55
2022/10/30 04:10:13;;;;;;;30.83;27.63;;;;;21.40;100647.00;;;;2070864;28;20214;-57
2022/10/30 04:11:14;;;;;;;30.83;27.63;;;;;21.40;100630.00;;;;2071523;28;20214;-54
2022/10/30 04:12:14;;;;;;;31.03;28.03;;;;;21.40;100639.00;;;;2070731;28;20217;-55
2022/10/30 04:13:15;;;;;;;29.53;26.63;;;;;21.40;100641.00;;;;2071477;28;20217;-56
2022/10/30 04:14:15;;;;;;;28.95;25.90;;;;;21.40;100644.00;;;;2071319;28;20207;-57
2022/10/30 04:15:16;;;;;;;29.57;26.57;;;;;21.40;100647.00;;;;2071607;28;20222;-54
2022/10/30 04:16:16;;;;;;;29.83;26.93;;;;;21.40;100646.00;;;;2071567;28;20264;-55
2022/10/30 04:17:16;;;;;;;28.87;26.00;;;;;21.40;100647.00;;;;2071208;28;20233;-54
2022/10/30 04:18:17;;;;;;;27.17;24.50;;;;;21.40;100652.00;;;;2071541;28;20207;-57
2022/10/30 04:19:17;;;;;;;28.27;25.17;;;;;21.40;100645.00;;;;2071790;28;20270;-56
2022/10/30 04:20:18;;;;;;;28.87;25.97;;;;;21.40;100650.00;;;;2072750;28;20233;-57
2022/10/30 04:21:18;;;;;;;27.70;25.03;;;;;21.40;100643.00;;;;2071528;28;20203;-56
2022/10/30 04:22:19;;;;;;;25.53;23.03;;;;;21.40;100646.00;;;;2070240;28;20457;-54
2022/10/30 04:23:19;;;;;;;26.80;24.10;;;;;21.40;100655.00;;;;2070778;28;20224;-56
2022/10/30 04:24:20;;;;;;;28.03;25.10;;;;;21.40;100649.00;;;;2070224;28;20409;-57
2022/10/30 04:25:20;;;;;;;26.10;23.50;;;;;21.40;100646.00;;;;2070954;28;20722;-55
2022/10/30 04:26:21;;;;;;;26.87;24.07;;;;;21.40;100644.00;;;;2070341;28;20215;-54
2022/10/30 04:27:21;;;;;;;27.83;25.10;;;;;21.40;100652.00;;;;2069864;28;20222;-55
2022/10/30 04:28:21;;;;;;;27.57;24.63;;;;;21.40;100648.00;;;;2070861;28;20239;-54
2022/10/30 04:29:22;;;;;;;28.37;25.37;;;;;21.40;100644.00;;;;2070876;28;20211;-57
2022/10/30 04:30:26;;;;;;;26.83;24.20;;;;;21.40;100648.00;;;;2070638;28;20214;-57
2022/10/30 04:31:26;;;;;;;25.25;22.65;;;;;21.40;100647.00;;;;2076497;28;20267;-57
2022/10/30 04:32:27;;;;;;;26.83;24.13;;;;;21.40;100638.00;;;;2078648;28;20287;-56
2022/10/30 04:33:27;;;;;;;26.13;23.63;;;;;21.40;100636.00;;;;2077812;28;20217;-55
2022/10/30 04:34:28;;;;;;;24.40;22.00;;;;;21.40;100641.00;;;;2079227;28;20217;-57
2022/10/30 04:35:29;;;;;;;25.47;22.87;;;;;21.40;100645.00;;;;2079165;28;20584;-57
2022/10/30 04:36:32;;;;;;;25.00;22.48;;;;;21.40;100642.00;;;;2079527;28;20584;-56
2022/10/30 04:37:33;;;;;;;26.48;23.80;;;;;21.40;100645.00;;;;2079311;28;20237;-58
2022/10/30 04:38:33;;;;;;;26.10;23.50;;;;;21.40;100644.00;;;;2079561;28;20674;-55
2022/10/30 04:39:33;;;;;;;26.30;23.43;;;;;21.40;100645.00;;;;2079491;28;20209;-56
2022/10/30 04:40:35;;;;;;;25.50;22.80;;;;;21.40;100642.00;;;;2079325;28;20213;-56
2022/10/30 04:41:36;;;;;;;24.08;20.88;;;;;21.40;100648.00;;;;2078586;28;20210;-55
2022/10/30 04:42:36;;;;;;;24.90;22.30;;;;;21.40;100652.00;;;;2078010;28;20267;-55
2022/10/30 04:43:36;;;;;;;22.00;19.90;;;;;21.40;100655.00;;;;2079152;28;20225;-57
2022/10/30 04:44:37;;;;;;;25.67;22.93;;;;;21.40;100660.00;;;;2076702;28;20291;-57
2022/10/30 04:45:37;;;;;;;25.33;22.60;;;;;21.40;100658.00;;;;2074268;28;20210;-56
2022/10/30 04:46:37;;;;;;;27.57;20.03;;;;;21.40;100655.00;;;;2079091;28;20214;-56
2022/10/30 04:47:38;;;;;;;18.80;16.77;;;;;21.40;100655.00;;;;2079523;28;20594;-56
2022/10/30 04:48:39;;;;;;;19.97;17.93;;;;;21.30;100659.00;;;;2079471;28;20644;-55
2022/10/30 04:49:40;;;;;;;19.38;16.58;;;;;21.30;100673.00;;;;2078679;28;20320;-56
2022/10/30 04:50:40;;;;;;;15.60;14.10;;;;;21.30;100662.00;;;;2078560;28;20217;-55
2022/10/30 04:51:40;;;;;;;15.90;14.37;;;;;21.30;100658.00;;;;2078299;28;20309;-55
2022/10/30 04:52:41;;;;;;;15.23;13.73;;;;;21.30;100651.00;;;;2077983;28;20696;-56
2022/10/30 04:53:41;;;;;;;15.73;14.10;;;;;21.30;100652.00;;;;2078828;28;20217;-57
2022/10/30 04:54:41;;;;;;;17.73;13.60;;;;;21.30;100651.00;;;;2079089;28;20256;-56
2022/10/30 04:55:43;;;;;;;17.00;14.87;;;;;21.30;100645.00;;;;2071279;28;20228;-55
2022/10/30 04:56:43;;;;;;;13.27;11.93;;;;;21.30;100646.00;;;;2071014;28;20585;-56
2022/10/30 04:57:43;;;;;;;14.90;13.40;;;;;21.30;100645.00;;;;2070623;28;20289;-57
2022/10/30 04:58:44;;;;;;;15.67;14.10;;;;;21.30;100643.00;;;;2071057;28;20260;-57
2022/10/30 04:59:44;;;;;;;15.17;13.63;;;;;21.30;100648.00;;;;2075657;28;20229;-57
2022/10/30 05:00:44;;;;;;;15.93;13.43;;;;;21.30;100652.00;;;;2079219;28;20214;-54